sensor_id;sensor_type;location;lat;lon;timestamp;P1;durP1;ratioP1;P2;durP2;ratioP2
42810;SDS011;28457;55.680;37.656;2022-08-07T00:01:27;21.70;;;12.05;;
42810;SDS011;28457;55.680;37.656;2022-08-07T00:04:15;17.58;;;11.55;;
42810;SDS011;28457;55.680;37.656;2022-08-07T00:06:50;15.63;;;11.50;;
42810;SDS011;28457;55.680;37.656;2022-08-07T00:09:18;19.38;;;11.80;;
42810;SDS011;28457;55.680;37.656;2022-08-07T00:12:01;16.25;;;12.13;;
42810;SDS011;28457;55.680;37.656;2022-08-07T00:14:30;12.73;;;10.77;;
42810;SDS011;28457;55.680;37.656;2022-08-07T00:17:00;16.90;;;10.55;;
42810;SDS011;28457;55.680;37.656;2022-08-07T00:19:32;13.23;;;10.10;;
42810;SDS011;28457;55.680;37.656;2022-08-07T00:22:20;13.88;;;10.10;;
42810;SDS011;28457;55.680;37.656;2022-08-07T00:25:02;13.57;;;10.65;;
42810;SDS011;28457;55.680;37.656;2022-08-07T00:27:33;15.68;;;10.80;;
42810;SDS011;28457;55.680;37.656;2022-08-07T00:30:19;12.15;;;10.05;;
42810;SDS011;28457;55.680;37.656;2022-08-07T00:32:56;12.68;;;10.02;;
42810;SDS011;28457;55.680;37.656;2022-08-07T00:35:26;16.00;;;11.73;;
42810;SDS011;28457;55.680;37.656;2022-08-07T00:37:56;14.68;;;10.55;;
42810;SDS011;28457;55.680;37.656;2022-08-07T00:40:25;16.17;;;10.95;;
42810;SDS011;28457;55.680;37.656;2022-08-07T00:43:06;14.88;;;11.07;;
42810;SDS011;28457;55.680;37.656;2022-08-07T00:45:55;16.48;;;12.48;;
42810;SDS011;28457;55.680;37.656;2022-08-07T00:48:25;17.42;;;12.10;;
42810;SDS011;28457;55.680;37.656;2022-08-07T00:50:58;20.08;;;13.60;;
42810;SDS011;28457;55.680;37.656;2022-08-07T00:53:28;15.68;;;13.25;;
42810;SDS011;28457;55.680;37.656;2022-08-07T00:58:44;18.92;;;14.48;;
42810;SDS011;28457;55.680;37.656;2022-08-07T01:01:16;19.83;;;13.35;;
42810;SDS011;28457;55.680;37.656;2022-08-07T01:03:48;15.45;;;13.10;;
42810;SDS011;28457;55.680;37.656;2022-08-07T01:06:24;16.98;;;13.57;;
42810;SDS011;28457;55.680;37.656;2022-08-07T01:08:53;18.98;;;12.48;;
42810;SDS011;28457;55.680;37.656;2022-08-07T01:11:27;17.58;;;13.35;;
42810;SDS011;28457;55.680;37.656;2022-08-07T01:14:17;21.13;;;13.50;;
42810;SDS011;28457;55.680;37.656;2022-08-07T01:16:47;18.08;;;13.82;;
42810;SDS011;28457;55.680;37.656;2022-08-07T01:19:20;20.48;;;14.07;;
42810;SDS011;28457;55.680;37.656;2022-08-07T01:21:52;22.77;;;17.40;;
42810;SDS011;28457;55.680;37.656;2022-08-07T01:24:29;23.00;;;17.20;;
42810;SDS011;28457;55.680;37.656;2022-08-07T01:27:01;25.83;;;18.10;;
42810;SDS011;28457;55.680;37.656;2022-08-07T01:29:30;20.75;;;16.10;;
42810;SDS011;28457;55.680;37.656;2022-08-07T01:32:01;21.20;;;14.35;;
42810;SDS011;28457;55.680;37.656;2022-08-07T01:34:42;17.45;;;13.75;;
42810;SDS011;28457;55.680;37.656;2022-08-07T01:37:16;16.25;;;12.95;;
42810;SDS011;28457;55.680;37.656;2022-08-07T01:39:48;13.90;;;12.40;;
42810;SDS011;28457;55.680;37.656;2022-08-07T01:45:05;14.70;;;11.88;;
42810;SDS011;28457;55.680;37.656;2022-08-07T01:47:42;13.38;;;10.77;;
42810;SDS011;28457;55.680;37.656;2022-08-07T01:50:30;13.00;;;11.25;;
42810;SDS011;28457;55.680;37.656;2022-08-07T01:53:04;13.52;;;9.95;;
42810;SDS011;28457;55.680;37.656;2022-08-07T01:58:27;12.38;;;10.95;;
42810;SDS011;28457;55.680;37.656;2022-08-07T02:01:08;14.30;;;10.98;;
42810;SDS011;28457;55.680;37.656;2022-08-07T02:04:00;13.82;;;10.98;;
42810;SDS011;28457;55.680;37.656;2022-08-07T02:06:35;16.88;;;11.57;;
42810;SDS011;28457;55.680;37.656;2022-08-07T02:09:10;13.88;;;9.90;;
42810;SDS011;28457;55.680;37.656;2022-08-07T02:12:02;13.27;;;10.40;;
42810;SDS011;28457;55.680;37.656;2022-08-07T12:21:50;6.82;;;4.43;;
42810;SDS011;28457;55.680;37.656;2022-08-07T12:24:46;5.68;;;3.40;;
42810;SDS011;28457;55.680;37.656;2022-08-07T12:28:01;9.20;;;4.38;;
42810;SDS011;28457;55.680;37.656;2022-08-07T12:33:13;7.53;;;3.40;;
42810;SDS011;28457;55.680;37.656;2022-08-07T12:35:54;4.72;;;3.08;;
42810;SDS011;28457;55.680;37.656;2022-08-07T12:38:29;8.32;;;2.80;;
42810;SDS011;28457;55.680;37.656;2022-08-07T12:41:12;22.00;;;8.57;;
42810;SDS011;28457;55.680;37.656;2022-08-07T12:43:48;8.90;;;4.93;;
42810;SDS011;28457;55.680;37.656;2022-08-07T12:46:34;6.43;;;3.85;;
42810;SDS011;28457;55.680;37.656;2022-08-07T12:49:20;4.97;;;3.20;;
42810;SDS011;28457;55.680;37.656;2022-08-07T12:52:18;4.78;;;2.85;;
42810;SDS011;28457;55.680;37.656;2022-08-07T12:55:01;4.38;;;2.88;;
42810;SDS011;28457;55.680;37.656;2022-08-07T12:57:43;7.63;;;3.95;;
42810;SDS011;28457;55.680;37.656;2022-08-07T13:00:28;3.47;;;2.33;;
42810;SDS011;28457;55.680;37.656;2022-08-07T13:03:30;4.50;;;2.78;;
42810;SDS011;28457;55.680;37.656;2022-08-07T13:06:37;5.72;;;3.35;;
42810;SDS011;28457;55.680;37.656;2022-08-07T13:09:31;6.38;;;2.95;;
42810;SDS011;28457;55.680;37.656;2022-08-07T13:12:34;8.00;;;3.03;;
42810;SDS011;28457;55.680;37.656;2022-08-07T13:15:15;4.70;;;3.08;;
42810;SDS011;28457;55.680;37.656;2022-08-07T13:18:01;6.25;;;2.90;;
42810;SDS011;28457;55.680;37.656;2022-08-07T13:20:55;4.38;;;2.85;;
42810;SDS011;28457;55.680;37.656;2022-08-07T13:23:31;3.78;;;2.90;;
42810;SDS011;28457;55.680;37.656;2022-08-07T13:26:29;4.75;;;3.13;;
42810;SDS011;28457;55.680;37.656;2022-08-07T13:29:05;3.47;;;2.63;;
42810;SDS011;28457;55.680;37.656;2022-08-07T13:31:40;4.00;;;2.50;;
42810;SDS011;28457;55.680;37.656;2022-08-07T13:34:37;4.93;;;2.50;;
42810;SDS011;28457;55.680;37.656;2022-08-07T13:37:21;4.85;;;2.70;;
42810;SDS011;28457;55.680;37.656;2022-08-07T13:39:58;3.30;;;2.65;;
42810;SDS011;28457;55.680;37.656;2022-08-07T13:42:53;9.30;;;5.45;;
42810;SDS011;28457;55.680;37.656;2022-08-07T13:45:28;2.97;;;2.60;;
42810;SDS011;28457;55.680;37.656;2022-08-07T13:48:19;4.70;;;2.60;;
42810;SDS011;28457;55.680;37.656;2022-08-07T13:51:00;3.03;;;2.30;;
42810;SDS011;28457;55.680;37.656;2022-08-07T13:53:51;3.72;;;2.55;;
42810;SDS011;28457;55.680;37.656;2022-08-07T13:56:28;2.83;;;2.58;;
42810;SDS011;28457;55.680;37.656;2022-08-07T13:59:06;2.83;;;2.15;;
42810;SDS011;28457;55.680;37.656;2022-08-07T14:01:44;3.00;;;2.28;;
42810;SDS011;28457;55.680;37.656;2022-08-07T14:04:31;3.03;;;1.77;;
42810;SDS011;28457;55.680;37.656;2022-08-07T14:07:17;4.93;;;2.55;;
42810;SDS011;28457;55.680;37.656;2022-08-07T14:09:52;2.25;;;1.88;;
42810;SDS011;28457;55.680;37.656;2022-08-07T14:12:32;3.67;;;2.10;;
42810;SDS011;28457;55.680;37.656;2022-08-07T14:15:19;3.05;;;2.10;;
42810;SDS011;28457;55.680;37.656;2022-08-07T14:18:02;3.75;;;1.88;;
42810;SDS011;28457;55.680;37.656;2022-08-07T14:20:58;2.50;;;2.00;;
42810;SDS011;28457;55.680;37.656;2022-08-07T14:23:37;3.42;;;2.13;;
42810;SDS011;28457;55.680;37.656;2022-08-07T14:26:32;2.40;;;1.55;;
42810;SDS011;28457;55.680;37.656;2022-08-07T14:29:16;4.50;;;2.10;;
42810;SDS011;28457;55.680;37.656;2022-08-07T14:32:08;3.22;;;2.55;;
42810;SDS011;28457;55.680;37.656;2022-08-07T14:34:40;3.30;;;2.13;;
42810;SDS011;28457;55.680;37.656;2022-08-07T14:37:13;2.35;;;2.00;;
42810;SDS011;28457;55.680;37.656;2022-08-07T14:39:49;2.65;;;1.77;;
42810;SDS011;28457;55.680;37.656;2022-08-07T14:42:40;2.97;;;2.05;;
42810;SDS011;28457;55.680;37.656;2022-08-07T14:45:29;2.25;;;1.73;;
42810;SDS011;28457;55.680;37.656;2022-08-07T14:48:15;3.60;;;2.78;;
42810;SDS011;28457;55.680;37.656;2022-08-07T14:50:49;3.97;;;1.75;;
42810;SDS011;28457;55.680;37.656;2022-08-07T14:53:19;3.28;;;2.00;;
42810;SDS011;28457;55.680;37.656;2022-08-07T14:56:09;3.05;;;1.92;;
42810;SDS011;28457;55.680;37.656;2022-08-07T14:58:40;2.50;;;2.08;;
42810;SDS011;28457;55.680;37.656;2022-08-07T15:01:22;2.20;;;1.75;;
42810;SDS011;28457;55.680;37.656;2022-08-07T15:04:08;2.67;;;2.10;;
42810;SDS011;28457;55.680;37.656;2022-08-07T15:06:41;3.05;;;2.17;;
42810;SDS011;28457;55.680;37.656;2022-08-07T15:09:33;3.05;;;2.40;;
42810;SDS011;28457;55.680;37.656;2022-08-07T15:12:31;2.72;;;1.95;;
42810;SDS011;28457;55.680;37.656;2022-08-07T15:15:25;2.60;;;1.90;;
42810;SDS011;28457;55.680;37.656;2022-08-07T15:21:02;3.03;;;1.90;;
42810;SDS011;28457;55.680;37.656;2022-08-07T15:23:55;2.95;;;2.10;;
42810;SDS011;28457;55.680;37.656;2022-08-07T15:26:48;2.78;;;1.98;;
42810;SDS011;28457;55.680;37.656;2022-08-07T15:29:23;2.85;;;1.90;;
42810;SDS011;28457;55.680;37.656;2022-08-07T15:32:20;3.13;;;1.90;;
42810;SDS011;28457;55.680;37.656;2022-08-07T15:35:13;2.30;;;1.80;;
42810;SDS011;28457;55.680;37.656;2022-08-07T15:37:47;2.40;;;1.90;;
42810;SDS011;28457;55.680;37.656;2022-08-07T15:40:32;2.97;;;1.80;;
42810;SDS011;28457;55.680;37.656;2022-08-07T15:43:03;2.60;;;1.95;;
42810;SDS011;28457;55.680;37.656;2022-08-07T15:46:10;3.15;;;1.90;;
42810;SDS011;28457;55.680;37.656;2022-08-07T15:49:04;3.17;;;2.10;;
42810;SDS011;28457;55.680;37.656;2022-08-07T15:51:39;3.08;;;1.95;;
42810;SDS011;28457;55.680;37.656;2022-08-07T15:54:24;2.85;;;1.90;;
42810;SDS011;28457;55.680;37.656;2022-08-07T15:57:08;2.20;;;1.90;;
42810;SDS011;28457;55.680;37.656;2022-08-07T15:59:58;4.80;;;2.10;;
42810;SDS011;28457;55.680;37.656;2022-08-07T16:02:34;2.47;;;1.90;;
42810;SDS011;28457;55.680;37.656;2022-08-07T16:05:14;2.70;;;2.40;;
42810;SDS011;28457;55.680;37.656;2022-08-07T16:07:46;3.72;;;1.95;;
42810;SDS011;28457;55.680;37.656;2022-08-07T16:10:54;3.20;;;2.20;;
42810;SDS011;28457;55.680;37.656;2022-08-07T16:16:33;3.50;;;2.10;;
42810;SDS011;28457;55.680;37.656;2022-08-07T16:22:34;3.83;;;2.55;;
42810;SDS011;28457;55.680;37.656;2022-08-07T16:28:33;2.60;;;2.20;;
42810;SDS011;28457;55.680;37.656;2022-08-07T16:31:39;3.13;;;2.20;;
42810;SDS011;28457;55.680;37.656;2022-08-07T16:34:36;4.22;;;1.95;;
42810;SDS011;28457;55.680;37.656;2022-08-07T16:37:20;3.30;;;2.40;;
42810;SDS011;28457;55.680;37.656;2022-08-07T16:40:29;3.50;;;2.55;;
42810;SDS011;28457;55.680;37.656;2022-08-07T16:43:45;3.97;;;2.90;;
42810;SDS011;28457;55.680;37.656;2022-08-07T16:46:58;2.67;;;2.10;;
42810;SDS011;28457;55.680;37.656;2022-08-07T16:50:04;3.97;;;2.55;;
42810;SDS011;28457;55.680;37.656;2022-08-07T16:53:19;2.83;;;2.38;;
42810;SDS011;28457;55.680;37.656;2022-08-07T16:56:17;2.70;;;2.28;;
42810;SDS011;28457;55.680;37.656;2022-08-07T16:58:53;2.45;;;2.08;;
42810;SDS011;28457;55.680;37.656;2022-08-07T17:01:46;3.63;;;2.60;;
42810;SDS011;28457;55.680;37.656;2022-08-07T17:04:29;5.15;;;2.75;;
42810;SDS011;28457;55.680;37.656;2022-08-07T17:07:23;3.08;;;2.58;;
42810;SDS011;28457;55.680;37.656;2022-08-07T17:10:32;3.95;;;2.40;;
42810;SDS011;28457;55.680;37.656;2022-08-07T17:13:31;3.17;;;2.63;;
42810;SDS011;28457;55.680;37.656;2022-08-07T17:16:41;4.78;;;2.90;;
42810;SDS011;28457;55.680;37.656;2022-08-07T17:19:25;3.47;;;2.75;;
42810;SDS011;28457;55.680;37.656;2022-08-07T17:22:25;2.83;;;2.50;;
42810;SDS011;28457;55.680;37.656;2022-08-07T17:25:09;3.92;;;2.75;;
42810;SDS011;28457;55.680;37.656;2022-08-07T17:27:49;2.92;;;2.53;;
42810;SDS011;28457;55.680;37.656;2022-08-07T17:30:27;3.72;;;2.53;;
42810;SDS011;28457;55.680;37.656;2022-08-07T17:33:24;3.72;;;2.80;;
42810;SDS011;28457;55.680;37.656;2022-08-07T17:36:19;3.50;;;3.20;;
42810;SDS011;28457;55.680;37.656;2022-08-07T17:39:03;3.45;;;2.65;;
42810;SDS011;28457;55.680;37.656;2022-08-07T17:41:42;3.78;;;3.03;;
42810;SDS011;28457;55.680;37.656;2022-08-07T17:44:31;3.92;;;2.80;;
42810;SDS011;28457;55.680;37.656;2022-08-07T17:47:17;3.10;;;2.80;;
42810;SDS011;28457;55.680;37.656;2022-08-07T17:50:14;3.50;;;3.13;;
42810;SDS011;28457;55.680;37.656;2022-08-07T17:52:48;4.40;;;3.30;;
42810;SDS011;28457;55.680;37.656;2022-08-07T17:55:27;4.07;;;2.53;;
42810;SDS011;28457;55.680;37.656;2022-08-07T17:58:21;3.45;;;2.90;;
42810;SDS011;28457;55.680;37.656;2022-08-07T18:00:59;3.05;;;2.75;;
42810;SDS011;28457;55.680;37.656;2022-08-07T18:03:50;4.10;;;3.35;;
42810;SDS011;28457;55.680;37.656;2022-08-07T18:06:34;3.75;;;2.92;;
42810;SDS011;28457;55.680;37.656;2022-08-07T18:09:10;3.42;;;2.90;;
42810;SDS011;28457;55.680;37.656;2022-08-07T18:12:06;3.83;;;2.60;;
42810;SDS011;28457;55.680;37.656;2022-08-07T18:14:57;3.22;;;2.50;;
42810;SDS011;28457;55.680;37.656;2022-08-07T18:17:35;3.72;;;3.10;;
42810;SDS011;28457;55.680;37.656;2022-08-07T18:20:28;3.05;;;2.75;;
42810;SDS011;28457;55.680;37.656;2022-08-07T18:23:23;8.70;;;3.53;;
42810;SDS011;28457;55.680;37.656;2022-08-07T18:26:19;3.83;;;2.70;;
42810;SDS011;28457;55.680;37.656;2022-08-07T18:29:02;5.28;;;3.60;;
42810;SDS011;28457;55.680;37.656;2022-08-07T18:31:58;5.07;;;3.40;;
42810;SDS011;28457;55.680;37.656;2022-08-07T18:34:38;4.13;;;2.45;;
42810;SDS011;28457;55.680;37.656;2022-08-07T18:37:34;5.70;;;2.95;;
42810;SDS011;28457;55.680;37.656;2022-08-07T18:43:53;5.28;;;3.35;;
42810;SDS011;28457;55.680;37.656;2022-08-07T18:46:31;4.78;;;3.20;;
42810;SDS011;28457;55.680;37.656;2022-08-07T18:49:09;4.60;;;3.55;;
42810;SDS011;28457;55.680;37.656;2022-08-07T18:52:09;7.63;;;3.65;;
42810;SDS011;28457;55.680;37.656;2022-08-07T18:55:18;4.15;;;3.17;;
42810;SDS011;28457;55.680;37.656;2022-08-07T18:58:18;3.67;;;3.05;;
42810;SDS011;28457;55.680;37.656;2022-08-07T19:01:02;4.55;;;3.30;;
42810;SDS011;28457;55.680;37.656;2022-08-07T19:03:59;3.92;;;3.10;;
42810;SDS011;28457;55.680;37.656;2022-08-07T19:06:44;5.15;;;3.25;;
42810;SDS011;28457;55.680;37.656;2022-08-07T19:09:18;4.65;;;3.20;;
42810;SDS011;28457;55.680;37.656;2022-08-07T19:12:15;4.50;;;3.28;;
42810;SDS011;28457;55.680;37.656;2022-08-07T19:15:02;5.07;;;3.75;;
42810;SDS011;28457;55.680;37.656;2022-08-07T19:18:09;4.05;;;2.97;;
42810;SDS011;28457;55.680;37.656;2022-08-07T19:20:43;4.63;;;3.25;;
42810;SDS011;28457;55.680;37.656;2022-08-07T19:23:38;4.68;;;3.80;;
42810;SDS011;28457;55.680;37.656;2022-08-07T19:26:27;6.35;;;3.70;;
42810;SDS011;28457;55.680;37.656;2022-08-07T19:29:22;4.63;;;3.95;;
42810;SDS011;28457;55.680;37.656;2022-08-07T19:32:12;5.85;;;3.65;;
42810;SDS011;28457;55.680;37.656;2022-08-07T19:34:58;6.03;;;3.60;;
42810;SDS011;28457;55.680;37.656;2022-08-07T19:37:29;3.80;;;3.40;;
42810;SDS011;28457;55.680;37.656;2022-08-07T19:40:19;4.15;;;3.10;;
42810;SDS011;28457;55.680;37.656;2022-08-07T19:43:00;4.82;;;3.20;;
42810;SDS011;28457;55.680;37.656;2022-08-07T19:45:47;4.45;;;3.40;;
42810;SDS011;28457;55.680;37.656;2022-08-07T19:48:36;4.70;;;3.78;;
42810;SDS011;28457;55.680;37.656;2022-08-07T19:51:11;5.82;;;3.40;;
42810;SDS011;28457;55.680;37.656;2022-08-07T19:53:49;4.25;;;3.42;;
42810;SDS011;28457;55.680;37.656;2022-08-07T19:56:39;5.35;;;3.40;;
42810;SDS011;28457;55.680;37.656;2022-08-07T19:59:30;5.97;;;3.45;;
42810;SDS011;28457;55.680;37.656;2022-08-07T20:02:09;3.92;;;3.53;;
42810;SDS011;28457;55.680;37.656;2022-08-07T20:04:55;4.70;;;3.95;;
42810;SDS011;28457;55.680;37.656;2022-08-07T20:07:27;4.47;;;3.90;;
42810;SDS011;28457;55.680;37.656;2022-08-07T20:10:15;4.22;;;3.65;;
42810;SDS011;28457;55.680;37.656;2022-08-07T20:13:08;4.97;;;3.83;;
42810;SDS011;28457;55.680;37.656;2022-08-07T20:15:49;6.68;;;3.83;;
42810;SDS011;28457;55.680;37.656;2022-08-07T20:18:24;4.47;;;3.70;;
42810;SDS011;28457;55.680;37.656;2022-08-07T20:20:59;4.13;;;3.60;;
42810;SDS011;28457;55.680;37.656;2022-08-07T20:23:50;5.05;;;3.80;;
42810;SDS011;28457;55.680;37.656;2022-08-07T20:26:26;4.90;;;3.70;;
42810;SDS011;28457;55.680;37.656;2022-08-07T20:29:11;4.72;;;4.22;;
42810;SDS011;28457;55.680;37.656;2022-08-07T20:32:04;4.30;;;3.83;;
42810;SDS011;28457;55.680;37.656;2022-08-07T20:34:49;6.32;;;3.75;;
42810;SDS011;28457;55.680;37.656;2022-08-07T20:37:20;5.25;;;4.40;;
42810;SDS011;28457;55.680;37.656;2022-08-07T20:39:57;4.70;;;4.13;;
42810;SDS011;28457;55.680;37.656;2022-08-07T20:42:49;5.50;;;4.57;;
42810;SDS011;28457;55.680;37.656;2022-08-07T20:45:22;7.28;;;5.15;;
42810;SDS011;28457;55.680;37.656;2022-08-07T20:48:11;9.85;;;4.90;;
42810;SDS011;28457;55.680;37.656;2022-08-07T20:50:55;7.65;;;4.85;;
42810;SDS011;28457;55.680;37.656;2022-08-07T20:53:25;6.85;;;4.35;;
42810;SDS011;28457;55.680;37.656;2022-08-07T20:56:16;7.28;;;4.60;;
42810;SDS011;28457;55.680;37.656;2022-08-07T20:58:52;7.38;;;5.25;;
42810;SDS011;28457;55.680;37.656;2022-08-07T21:01:24;7.35;;;5.07;;
42810;SDS011;28457;55.680;37.656;2022-08-07T21:04:02;6.93;;;4.55;;
42810;SDS011;28457;55.680;37.656;2022-08-07T21:06:49;5.82;;;4.75;;
42810;SDS011;28457;55.680;37.656;2022-08-07T21:09:27;9.50;;;6.25;;
42810;SDS011;28457;55.680;37.656;2022-08-07T21:12:20;10.00;;;5.47;;
42810;SDS011;28457;55.680;37.656;2022-08-07T21:14:55;9.63;;;5.40;;
42810;SDS011;28457;55.680;37.656;2022-08-07T21:17:30;6.53;;;5.43;;
42810;SDS011;28457;55.680;37.656;2022-08-07T21:20:21;7.60;;;5.30;;
42810;SDS011;28457;55.680;37.656;2022-08-07T21:22:56;5.68;;;4.60;;
42810;SDS011;28457;55.680;37.656;2022-08-07T21:25:45;11.07;;;6.38;;
42810;SDS011;28457;55.680;37.656;2022-08-07T21:28:31;6.20;;;5.60;;
42810;SDS011;28457;55.680;37.656;2022-08-07T21:31:22;6.05;;;5.10;;
42810;SDS011;28457;55.680;37.656;2022-08-07T21:34:19;5.68;;;4.78;;
42810;SDS011;28457;55.680;37.656;2022-08-07T21:36:59;5.68;;;4.63;;
42810;SDS011;28457;55.680;37.656;2022-08-07T21:39:44;6.70;;;5.70;;
42810;SDS011;28457;55.680;37.656;2022-08-07T21:42:29;8.15;;;4.90;;
42810;SDS011;28457;55.680;37.656;2022-08-07T21:45:16;4.90;;;4.32;;
42810;SDS011;28457;55.680;37.656;2022-08-07T21:48:12;6.45;;;5.13;;
42810;SDS011;28457;55.680;37.656;2022-08-07T21:51:04;6.88;;;5.65;;
42810;SDS011;28457;55.680;37.656;2022-08-07T21:53:50;6.55;;;4.97;;
42810;SDS011;28457;55.680;37.656;2022-08-07T21:56:27;6.00;;;4.63;;
42810;SDS011;28457;55.680;37.656;2022-08-07T22:02:36;6.72;;;5.32;;
42810;SDS011;28457;55.680;37.656;2022-08-07T22:05:11;7.13;;;6.10;;
42810;SDS011;28457;55.680;37.656;2022-08-07T22:08:06;6.82;;;5.43;;
42810;SDS011;28457;55.680;37.656;2022-08-07T22:10:36;5.57;;;4.93;;
42810;SDS011;28457;55.680;37.656;2022-08-07T22:13:09;9.75;;;5.90;;
42810;SDS011;28457;55.680;37.656;2022-08-07T22:15:43;7.82;;;6.45;;
42810;SDS011;28457;55.680;37.656;2022-08-07T22:18:41;8.77;;;7.88;;
42810;SDS011;28457;55.680;37.656;2022-08-07T22:21:17;7.60;;;6.72;;
42810;SDS011;28457;55.680;37.656;2022-08-07T22:23:50;8.27;;;7.47;;
42810;SDS011;28457;55.680;37.656;2022-08-07T22:26:25;8.57;;;7.40;;
42810;SDS011;28457;55.680;37.656;2022-08-07T22:28:58;10.68;;;8.48;;
42810;SDS011;28457;55.680;37.656;2022-08-07T22:31:41;9.88;;;8.18;;
42810;SDS011;28457;55.680;37.656;2022-08-07T22:34:35;14.02;;;7.82;;
42810;SDS011;28457;55.680;37.656;2022-08-07T22:37:21;10.13;;;8.07;;
42810;SDS011;28457;55.680;37.656;2022-08-07T22:40:22;8.77;;;7.88;;
42810;SDS011;28457;55.680;37.656;2022-08-07T22:42:56;8.48;;;7.57;;
42810;SDS011;28457;55.680;37.656;2022-08-07T22:45:33;9.27;;;7.60;;
42810;SDS011;28457;55.680;37.656;2022-08-07T22:48:36;10.57;;;8.20;;
42810;SDS011;28457;55.680;37.656;2022-08-07T22:51:42;8.55;;;7.72;;
42810;SDS011;28457;55.680;37.656;2022-08-07T22:54:32;9.93;;;8.40;;
42810;SDS011;28457;55.680;37.656;2022-08-07T22:57:19;10.80;;;9.70;;
42810;SDS011;28457;55.680;37.656;2022-08-07T23:00:08;12.85;;;11.55;;
42810;SDS011;28457;55.680;37.656;2022-08-07T23:02:46;12.35;;;11.15;;
42810;SDS011;28457;55.680;37.656;2022-08-07T23:09:01;13.25;;;11.68;;
42810;SDS011;28457;55.680;37.656;2022-08-07T23:12:11;12.88;;;11.38;;
42810;SDS011;28457;55.680;37.656;2022-08-07T23:15:05;11.60;;;10.25;;
42810;SDS011;28457;55.680;37.656;2022-08-07T23:18:00;12.38;;;11.07;;
42810;SDS011;28457;55.680;37.656;2022-08-07T23:20:56;12.40;;;11.10;;
42810;SDS011;28457;55.680;37.656;2022-08-07T23:23:41;12.90;;;11.60;;
42810;SDS011;28457;55.680;37.656;2022-08-07T23:26:41;11.85;;;10.60;;
42810;SDS011;28457;55.680;37.656;2022-08-07T23:29:31;10.98;;;9.95;;
42810;SDS011;28457;55.680;37.656;2022-08-07T23:32:36;12.90;;;11.70;;
42810;SDS011;28457;55.680;37.656;2022-08-07T23:35:41;13.40;;;12.00;;
42810;SDS011;28457;55.680;37.656;2022-08-07T23:38:19;12.50;;;11.20;;
42810;SDS011;28457;55.680;37.656;2022-08-07T23:41:12;12.23;;;11.13;;
42810;SDS011;28457;55.680;37.656;2022-08-07T23:44:33;10.95;;;9.93;;
42810;SDS011;28457;55.680;37.656;2022-08-07T23:47:18;10.85;;;9.75;;
42810;SDS011;28457;55.680;37.656;2022-08-07T23:53:07;11.63;;;10.43;;
42810;SDS011;28457;55.680;37.656;2022-08-07T23:55:44;12.02;;;10.77;;
42810;SDS011;28457;55.680;37.656;2022-08-07T23:58:32;11.45;;;10.35;;
